sensor_id;sensor_type;location;lat;lon;timestamp;pressure;altitude;pressure_sealevel;temperature;humidity
41312;BME280;27061;41.648;24.568;2023-05-20T00:01:26;86203.69;;;10.45;73.40
41312;BME280;27061;41.648;24.568;2023-05-20T00:03:53;86230.53;;;10.63;73.17
41312;BME280;27061;41.648;24.568;2023-05-20T00:06:21;86175.47;;;10.22;72.69
41312;BME280;27061;41.648;24.568;2023-05-20T00:08:48;86223.63;;;10.62;72.93
41312;BME280;27061;41.648;24.568;2023-05-20T00:11:15;86213.91;;;10.69;72.16
41312;BME280;27061;41.648;24.568;2023-05-20T00:13:42;86226.31;;;10.76;72.05
41312;BME280;27061;41.648;24.568;2023-05-20T00:16:09;86219.44;;;10.67;71.94
41312;BME280;27061;41.648;24.568;2023-05-20T00:18:36;86227.91;;;10.45;73.17
41312;BME280;27061;41.648;24.568;2023-05-20T00:21:03;86185.22;;;10.05;73.27
41312;BME280;27061;41.648;24.568;2023-05-20T00:23:30;86219.59;;;10.47;73.06
41312;BME280;27061;41.648;24.568;2023-05-20T00:25:57;86122.56;;;9.63;72.68
41312;BME280;27061;41.648;24.568;2023-05-20T00:28:26;86215.53;;;10.32;73.04
41312;BME280;27061;41.648;24.568;2023-05-20T00:30:53;86164.50;;;10.00;73.18
41312;BME280;27061;41.648;24.568;2023-05-20T00:33:20;86212.69;;;10.46;72.55
41312;BME280;27061;41.648;24.568;2023-05-20T00:35:47;86152.13;;;9.93;72.75
41312;BME280;27061;41.648;24.568;2023-05-20T00:38:14;86203.75;;;10.35;73.19
41312;BME280;27061;41.648;24.568;2023-05-20T00:40:42;86194.78;;;10.31;72.78
41312;BME280;27061;41.648;24.568;2023-05-20T00:43:09;86114.28;;;9.61;73.65
41312;BME280;27061;41.648;24.568;2023-05-20T00:45:37;86193.38;;;10.34;71.83
41312;BME280;27061;41.648;24.568;2023-05-20T00:48:05;86183.78;;;10.20;72.55
41312;BME280;27061;41.648;24.568;2023-05-20T00:50:40;86187.91;;;10.23;72.55
41312;BME280;27061;41.648;24.568;2023-05-20T00:53:07;86192.75;;;10.21;72.58
41312;BME280;27061;41.648;24.568;2023-05-20T00:55:35;86187.25;;;10.15;73.18
41312;BME280;27061;41.648;24.568;2023-05-20T00:58:04;86192.09;;;10.16;73.54
41312;BME280;27061;41.648;24.568;2023-05-20T01:00:31;86199.09;;;9.99;73.99
41312;BME280;27061;41.648;24.568;2023-05-20T01:02:59;86192.16;;;10.06;74.15
41312;BME280;27061;41.648;24.568;2023-05-20T01:05:26;86179.66;;;10.07;74.01
41312;BME280;27061;41.648;24.568;2023-05-20T01:07:54;86141.19;;;9.69;73.85
41312;BME280;27061;41.648;24.568;2023-05-20T01:10:23;86178.38;;;9.94;74.06
41312;BME280;27061;41.648;24.568;2023-05-20T01:12:54;86179.06;;;9.93;74.15
41312;BME280;27061;41.648;24.568;2023-05-20T01:15:25;86154.94;;;9.85;73.79
41312;BME280;27061;41.648;24.568;2023-05-20T01:17:58;86146.66;;;9.77;73.19
41312;BME280;27061;41.648;24.568;2023-05-20T01:20:28;86182.47;;;10.03;73.79
41312;BME280;27061;41.648;24.568;2023-05-20T01:22:58;86176.97;;;9.97;73.89
41312;BME280;27061;41.648;24.568;2023-05-20T01:25:25;86124.63;;;9.61;73.41
41312;BME280;27061;41.648;24.568;2023-05-20T01:27:54;86179.69;;;10.05;73.50
41312;BME280;27061;41.648;24.568;2023-05-20T01:30:32;86174.94;;;9.89;73.32
41312;BME280;27061;41.648;24.568;2023-05-20T01:33:06;86182.50;;;9.99;73.68
41312;BME280;27061;41.648;24.568;2023-05-20T01:35:34;86133.63;;;9.63;73.81
41312;BME280;27061;41.648;24.568;2023-05-20T01:38:04;86211.53;;;9.96;73.83
41312;BME280;27061;41.648;24.568;2023-05-20T01:40:33;86114.97;;;9.53;73.00
41312;BME280;27061;41.648;24.568;2023-05-20T01:43:01;86115.03;;;9.43;73.96
41312;BME280;27061;41.648;24.568;2023-05-20T01:45:30;86168.72;;;9.89;74.40
41312;BME280;27061;41.648;24.568;2023-05-20T01:47:58;86172.88;;;9.90;74.03
41312;BME280;27061;41.648;24.568;2023-05-20T01:50:34;86059.97;;;9.09;74.40
41312;BME280;27061;41.648;24.568;2023-05-20T01:53:01;86161.75;;;9.98;72.89
41312;BME280;27061;41.648;24.568;2023-05-20T01:55:29;86119.16;;;9.48;73.50
41312;BME280;27061;41.648;24.568;2023-05-20T01:57:56;86159.03;;;9.86;73.90
41312;BME280;27061;41.648;24.568;2023-05-20T02:00:24;86138.41;;;9.71;74.83
41312;BME280;27061;41.648;24.568;2023-05-20T02:02:51;86131.44;;;9.78;73.78
41312;BME280;27061;41.648;24.568;2023-05-20T02:05:18;86106.06;;;9.43;74.88
41312;BME280;27061;41.648;24.568;2023-05-20T02:07:45;86154.28;;;9.74;75.26
41312;BME280;27061;41.648;24.568;2023-05-20T02:10:12;86075.06;;;9.26;74.64
41312;BME280;27061;41.648;24.568;2023-05-20T02:12:39;86065.50;;;9.09;74.52
41312;BME280;27061;41.648;24.568;2023-05-20T02:15:07;86159.81;;;9.74;74.92
41312;BME280;27061;41.648;24.568;2023-05-20T02:17:34;86160.50;;;9.75;75.38
41312;BME280;27061;41.648;24.568;2023-05-20T02:20:02;86135.72;;;9.57;75.64
41312;BME280;27061;41.648;24.568;2023-05-20T02:22:33;86153.63;;;9.68;75.71
41312;BME280;27061;41.648;24.568;2023-05-20T02:25:02;86141.28;;;9.48;75.26
41312;BME280;27061;41.648;24.568;2023-05-20T02:27:29;86154.97;;;9.75;74.66
41312;BME280;27061;41.648;24.568;2023-05-20T02:29:58;86061.34;;;9.02;74.99
41312;BME280;27061;41.648;24.568;2023-05-20T02:32:25;86070.97;;;9.17;74.90
41312;BME280;27061;41.648;24.568;2023-05-20T02:34:54;86090.25;;;9.27;74.80
41312;BME280;27061;41.648;24.568;2023-05-20T02:37:21;86149.47;;;9.69;74.56
41312;BME280;27061;41.648;24.568;2023-05-20T02:39:48;86124.00;;;9.50;74.33
41312;BME280;27061;41.648;24.568;2023-05-20T02:42:16;86099.94;;;9.26;74.37
41312;BME280;27061;41.648;24.568;2023-05-20T02:44:46;86076.50;;;9.15;74.79
41312;BME280;27061;41.648;24.568;2023-05-20T02:47:13;86130.22;;;9.48;74.59
41312;BME280;27061;41.648;24.568;2023-05-20T02:49:40;86061.44;;;8.90;74.70
41312;BME280;27061;41.648;24.568;2023-05-20T02:52:07;86063.47;;;8.99;75.34
41312;BME280;27061;41.648;24.568;2023-05-20T02:54:34;86098.59;;;9.17;75.44
41312;BME280;27061;41.648;24.568;2023-05-20T02:57:01;86148.84;;;9.58;75.88
41312;BME280;27061;41.648;24.568;2023-05-20T02:59:29;86157.75;;;9.69;75.33
41312;BME280;27061;41.648;24.568;2023-05-20T03:01:56;86164.69;;;9.68;75.64
41312;BME280;27061;41.648;24.568;2023-05-20T03:04:27;86170.94;;;9.62;75.25
41312;BME280;27061;41.648;24.568;2023-05-20T03:06:54;86134.41;;;9.35;75.85
41312;BME280;27061;41.648;24.568;2023-05-20T03:09:24;86106.22;;;9.06;75.38
41312;BME280;27061;41.648;24.568;2023-05-20T03:11:51;86073.84;;;8.85;75.37
41312;BME280;27061;41.648;24.568;2023-05-20T03:14:18;86149.56;;;9.46;75.40
41312;BME280;27061;41.648;24.568;2023-05-20T03:16:45;86167.53;;;9.49;75.53
41312;BME280;27061;41.648;24.568;2023-05-20T03:19:12;86163.41;;;9.46;76.73
41312;BME280;27061;41.648;24.568;2023-05-20T03:21:39;86097.28;;;8.92;76.97
41312;BME280;27061;41.648;24.568;2023-05-20T03:24:07;86072.50;;;8.75;77.79
41312;BME280;27061;41.648;24.568;2023-05-20T03:26:34;86170.34;;;9.33;78.01
41312;BME280;27061;41.648;24.568;2023-05-20T03:29:04;86122.78;;;9.10;78.99
41312;BME280;27061;41.648;24.568;2023-05-20T03:31:31;86109.75;;;8.85;80.55
41312;BME280;27061;41.648;24.568;2023-05-20T03:33:59;86078.03;;;8.71;80.81
41312;BME280;27061;41.648;24.568;2023-05-20T03:36:26;86131.13;;;9.00;81.81
41312;BME280;27061;41.648;24.568;2023-05-20T03:38:53;86150.38;;;9.12;83.28
41312;BME280;27061;41.648;24.568;2023-05-20T03:41:20;86084.97;;;8.58;84.08
41312;BME280;27061;41.648;24.568;2023-05-20T03:43:48;86108.41;;;8.67;84.92
41312;BME280;27061;41.648;24.568;2023-05-20T03:46:15;86097.38;;;8.67;85.66
41312;BME280;27061;41.648;24.568;2023-05-20T03:48:42;86148.28;;;9.25;85.60
41312;BME280;27061;41.648;24.568;2023-05-20T03:51:10;86148.31;;;9.21;86.01
41312;BME280;27061;41.648;24.568;2023-05-20T03:53:37;86149.66;;;9.22;87.23
41312;BME280;27061;41.648;24.568;2023-05-20T03:56:04;86157.94;;;9.26;88.10
41312;BME280;27061;41.648;24.568;2023-05-20T03:58:32;86143.44;;;9.24;88.80
41312;BME280;27061;41.648;24.568;2023-05-20T04:00:59;86046.34;;;8.54;89.58
41312;BME280;27061;41.648;24.568;2023-05-20T04:03:26;86082.09;;;8.93;90.31
41312;BME280;27061;41.648;24.568;2023-05-20T04:05:55;86111.06;;;9.10;90.43
41312;BME280;27061;41.648;24.568;2023-05-20T04:08:22;86168.91;;;9.52;90.27
41312;BME280;27061;41.648;24.568;2023-05-20T04:10:55;86186.16;;;9.55;89.37
41312;BME280;27061;41.648;24.568;2023-05-20T04:13:24;86177.16;;;9.63;88.57
41312;BME280;27061;41.648;24.568;2023-05-20T04:15:51;86104.81;;;9.11;87.51
41312;BME280;27061;41.648;24.568;2023-05-20T04:18:19;86107.56;;;9.20;86.59
41312;BME280;27061;41.648;24.568;2023-05-20T04:20:47;85980.19;;;8.30;86.11
41312;BME280;27061;41.648;24.568;2023-05-20T04:23:15;86182.66;;;9.65;88.84
41312;BME280;27061;41.648;24.568;2023-05-20T04:25:42;86157.13;;;9.54;87.91
41312;BME280;27061;41.648;24.568;2023-05-20T04:28:14;86123.38;;;9.35;87.20
41312;BME280;27061;41.648;24.568;2023-05-20T04:30:42;86123.38;;;9.39;87.72
41312;BME280;27061;41.648;24.568;2023-05-20T04:33:11;86183.91;;;9.92;88.02
41312;BME280;27061;41.648;24.568;2023-05-20T04:35:39;86113.59;;;9.57;84.83
41312;BME280;27061;41.648;24.568;2023-05-20T04:38:08;86110.06;;;9.68;83.42
41312;BME280;27061;41.648;24.568;2023-05-20T04:40:35;86192.06;;;10.24;82.75
41312;BME280;27061;41.648;24.568;2023-05-20T04:43:04;86113.59;;;9.54;87.28
41312;BME280;27061;41.648;24.568;2023-05-20T04:45:31;86167.31;;;9.94;88.95
41312;BME280;27061;41.648;24.568;2023-05-20T04:48:00;85906.47;;;8.10;85.42
41312;BME280;27061;41.648;24.568;2023-05-20T04:50:27;86196.81;;;10.36;88.55
41312;BME280;27061;41.648;24.568;2023-05-20T04:52:55;86099.66;;;9.79;88.94
41312;BME280;27061;41.648;24.568;2023-05-20T04:55:22;86160.25;;;10.23;86.91
41312;BME280;27061;41.648;24.568;2023-05-20T04:57:51;86178.09;;;10.41;83.73
41312;BME280;27061;41.648;24.568;2023-05-20T05:00:18;86133.94;;;10.24;83.77
41312;BME280;27061;41.648;24.568;2023-05-20T05:02:46;86078.97;;;9.74;82.82
41312;BME280;27061;41.648;24.568;2023-05-20T05:05:13;86195.91;;;10.66;82.36
41312;BME280;27061;41.648;24.568;2023-05-20T05:07:41;86178.00;;;10.53;81.54
41312;BME280;27061;41.648;24.568;2023-05-20T05:10:10;86197.97;;;10.70;80.93
41312;BME280;27061;41.648;24.568;2023-05-20T05:12:38;86191.00;;;10.75;79.93
41312;BME280;27061;41.648;24.568;2023-05-20T05:15:05;86177.88;;;10.71;82.38
41312;BME280;27061;41.648;24.568;2023-05-20T05:17:32;86157.19;;;10.60;81.71
41312;BME280;27061;41.648;24.568;2023-05-20T05:20:02;86114.47;;;10.39;82.24
41312;BME280;27061;41.648;24.568;2023-05-20T05:22:30;86124.78;;;10.46;82.39
41312;BME280;27061;41.648;24.568;2023-05-20T05:24:58;86151.34;;;10.94;82.67
41312;BME280;27061;41.648;24.568;2023-05-20T05:27:25;86098.38;;;10.59;80.63
41312;BME280;27061;41.648;24.568;2023-05-20T05:29:53;86103.19;;;10.63;80.42
41312;BME280;27061;41.648;24.568;2023-05-20T05:32:20;86164.91;;;11.25;81.04
41312;BME280;27061;41.648;24.568;2023-05-20T05:34:47;86164.97;;;11.21;82.84
41312;BME280;27061;41.648;24.568;2023-05-20T05:37:14;86133.22;;;11.10;84.89
41312;BME280;27061;41.648;24.568;2023-05-20T05:39:41;86164.22;;;11.24;85.20
41312;BME280;27061;41.648;24.568;2023-05-20T05:42:09;86192.97;;;11.58;85.47
41312;BME280;27061;41.648;24.568;2023-05-20T05:44:36;86201.25;;;11.64;84.69
41312;BME280;27061;41.648;24.568;2023-05-20T05:47:06;86163.28;;;11.48;84.53
41312;BME280;27061;41.648;24.568;2023-05-20T05:49:33;86190.75;;;11.72;85.53
41312;BME280;27061;41.648;24.568;2023-05-20T05:52:01;86136.56;;;11.22;77.12
41312;BME280;27061;41.648;24.568;2023-05-20T05:54:28;86194.91;;;11.73;78.91
41312;BME280;27061;41.648;24.568;2023-05-20T05:56:55;86165.78;;;11.74;84.69
41312;BME280;27061;41.648;24.568;2023-05-20T05:59:24;86036.44;;;10.91;86.53
41312;BME280;27061;41.648;24.568;2023-05-20T06:01:55;86144.94;;;11.78;85.43
41312;BME280;27061;41.648;24.568;2023-05-20T06:04:23;86187.47;;;12.15;85.28
41312;BME280;27061;41.648;24.568;2023-05-20T06:06:53;86154.50;;;11.91;79.55
41312;BME280;27061;41.648;24.568;2023-05-20T06:09:20;86117.25;;;11.71;79.72
41312;BME280;27061;41.648;24.568;2023-05-20T06:11:47;86188.50;;;12.40;79.59
41312;BME280;27061;41.648;24.568;2023-05-20T06:14:14;86178.03;;;12.47;78.86
41312;BME280;27061;41.648;24.568;2023-05-20T06:16:42;86188.19;;;12.63;81.54
41312;BME280;27061;41.648;24.568;2023-05-20T06:19:10;86098.84;;;12.03;81.08
41312;BME280;27061;41.648;24.568;2023-05-20T06:21:38;86185.25;;;12.75;76.78
41312;BME280;27061;41.648;24.568;2023-05-20T06:24:05;86152.19;;;12.57;76.68
41312;BME280;27061;41.648;24.568;2023-05-20T06:26:34;86066.97;;;12.00;73.20
41312;BME280;27061;41.648;24.568;2023-05-20T06:29:02;86165.63;;;12.87;72.13
41312;BME280;27061;41.648;24.568;2023-05-20T06:31:30;86181.81;;;12.72;72.03
41312;BME280;27061;41.648;24.568;2023-05-20T06:33:57;86149.34;;;12.61;75.24
41312;BME280;27061;41.648;24.568;2023-05-20T06:36:26;86169.78;;;12.88;76.77
41312;BME280;27061;41.648;24.568;2023-05-20T06:38:53;86147.59;;;12.84;77.09
41312;BME280;27061;41.648;24.568;2023-05-20T06:41:20;86131.16;;;12.70;76.80
41312;BME280;27061;41.648;24.568;2023-05-20T06:43:50;86154.28;;;13.01;70.59
41312;BME280;27061;41.648;24.568;2023-05-20T06:46:37;86167.56;;;12.95;70.82
41312;BME280;27061;41.648;24.568;2023-05-20T06:49:09;86177.00;;;13.14;74.02
41312;BME280;27061;41.648;24.568;2023-05-20T06:51:37;86087.78;;;12.48;72.66
41312;BME280;27061;41.648;24.568;2023-05-20T06:54:04;86129.72;;;12.73;70.98
41312;BME280;27061;41.648;24.568;2023-05-20T06:56:31;86166.53;;;13.18;72.59
41312;BME280;27061;41.648;24.568;2023-05-20T06:58:58;86181.06;;;13.21;71.38
41312;BME280;27061;41.648;24.568;2023-05-20T07:01:26;86125.41;;;12.82;72.16
41312;BME280;27061;41.648;24.568;2023-05-20T07:03:54;86148.59;;;13.09;73.63
41312;BME280;27061;41.648;24.568;2023-05-20T07:06:22;86116.16;;;12.96;74.41
41312;BME280;27061;41.648;24.568;2023-05-20T07:08:49;86073.59;;;12.66;71.50
41312;BME280;27061;41.648;24.568;2023-05-20T07:11:17;86170.47;;;13.32;72.42
41312;BME280;27061;41.648;24.568;2023-05-20T07:13:44;86128.63;;;12.97;72.71
41312;BME280;27061;41.648;24.568;2023-05-20T07:16:12;86185.53;;;13.45;71.50
41312;BME280;27061;41.648;24.568;2023-05-20T07:18:43;86108.13;;;12.77;70.35
41312;BME280;27061;41.648;24.568;2023-05-20T07:21:10;86176.31;;;13.13;70.86
41312;BME280;27061;41.648;24.568;2023-05-20T07:23:57;86089.75;;;12.54;71.16
41312;BME280;27061;41.648;24.568;2023-05-20T07:26:24;86130.69;;;12.98;69.76
41312;BME280;27061;41.648;24.568;2023-05-20T07:28:51;86088.88;;;12.65;70.96
41312;BME280;27061;41.648;24.568;2023-05-20T07:31:18;86185.03;;;13.34;71.60
41312;BME280;27061;41.648;24.568;2023-05-20T07:33:46;86184.91;;;13.40;72.37
41312;BME280;27061;41.648;24.568;2023-05-20T07:36:14;86184.09;;;13.46;71.37
41312;BME280;27061;41.648;24.568;2023-05-20T07:38:45;86132.03;;;13.01;69.97
41312;BME280;27061;41.648;24.568;2023-05-20T07:41:29;86184.22;;;13.40;69.88
41312;BME280;27061;41.648;24.568;2023-05-20T07:43:57;86189.72;;;13.44;68.46
41312;BME280;27061;41.648;24.568;2023-05-20T07:46:24;86131.91;;;13.09;69.79
41312;BME280;27061;41.648;24.568;2023-05-20T07:48:51;86186.72;;;13.56;67.59
41312;BME280;27061;41.648;24.568;2023-05-20T07:51:18;86188.06;;;13.59;67.63
41312;BME280;27061;41.648;24.568;2023-05-20T07:53:46;86121.03;;;12.95;66.62
41312;BME280;27061;41.648;24.568;2023-05-20T07:56:13;86160.91;;;13.23;69.66
41312;BME280;27061;41.648;24.568;2023-05-20T07:58:41;86199.28;;;13.55;71.32
41312;BME280;27061;41.648;24.568;2023-05-20T08:01:09;86073.59;;;12.66;70.68
41312;BME280;27061;41.648;24.568;2023-05-20T08:03:37;86085.88;;;12.79;70.69
41312;BME280;27061;41.648;24.568;2023-05-20T08:06:09;86131.72;;;13.22;70.30
41312;BME280;27061;41.648;24.568;2023-05-20T08:08:36;86194.81;;;13.70;70.30
41312;BME280;27061;41.648;24.568;2023-05-20T08:11:08;86188.69;;;13.64;69.01
41312;BME280;27061;41.648;24.568;2023-05-20T08:13:37;86176.75;;;13.69;69.31
41312;BME280;27061;41.648;24.568;2023-05-20T08:16:05;86141.78;;;13.41;69.35
41312;BME280;27061;41.648;24.568;2023-05-20T08:18:34;86123.13;;;13.36;69.47
41312;BME280;27061;41.648;24.568;2023-05-20T08:21:04;86176.66;;;13.75;69.97
41312;BME280;27061;41.648;24.568;2023-05-20T08:23:34;86104.53;;;13.26;67.64
41312;BME280;27061;41.648;24.568;2023-05-20T08:26:06;86181.72;;;14.00;65.73
41312;BME280;27061;41.648;24.568;2023-05-20T08:28:35;86190.19;;;13.96;64.94
41312;BME280;27061;41.648;24.568;2023-05-20T08:31:03;86183.44;;;13.84;67.64
41312;BME280;27061;41.648;24.568;2023-05-20T08:33:31;86173.72;;;13.81;71.93
41312;BME280;27061;41.648;24.568;2023-05-20T08:35:59;86187.38;;;13.96;71.09
41312;BME280;27061;41.648;24.568;2023-05-20T08:38:27;86148.88;;;13.71;71.02
41312;BME280;27061;41.648;24.568;2023-05-20T08:40:56;86124.16;;;13.55;69.83
41312;BME280;27061;41.648;24.568;2023-05-20T08:43:33;86180.41;;;13.97;69.04
41312;BME280;27061;41.648;24.568;2023-05-20T08:46:01;86186.28;;;14.17;64.70
41312;BME280;27061;41.648;24.568;2023-05-20T08:48:37;86159.47;;;14.00;66.95
41312;BME280;27061;41.648;24.568;2023-05-20T08:51:08;86159.63;;;13.91;67.47
41312;BME280;27061;41.648;24.568;2023-05-20T08:53:36;86145.47;;;14.04;64.12
41312;BME280;27061;41.648;24.568;2023-05-20T08:56:04;86193.44;;;14.41;65.15
41312;BME280;27061;41.648;24.568;2023-05-20T08:58:32;86196.28;;;14.39;65.41
41312;BME280;27061;41.648;24.568;2023-05-20T09:00:59;86197.00;;;14.38;65.77
41312;BME280;27061;41.648;24.568;2023-05-20T09:03:27;86190.56;;;14.47;70.22
41312;BME280;27061;41.648;24.568;2023-05-20T09:06:03;86170.38;;;14.47;69.50
41312;BME280;27061;41.648;24.568;2023-05-20T09:08:32;86168.84;;;14.52;66.38
41312;BME280;27061;41.648;24.568;2023-05-20T09:10:59;86136.06;;;14.21;64.53
41312;BME280;27061;41.648;24.568;2023-05-20T09:13:29;86184.38;;;14.76;63.54
41312;BME280;27061;41.648;24.568;2023-05-20T09:15:59;86134.91;;;14.43;63.75
41312;BME280;27061;41.648;24.568;2023-05-20T09:18:27;86135.03;;;14.39;64.68
41312;BME280;27061;41.648;24.568;2023-05-20T09:20:55;86172.09;;;14.62;65.13
41312;BME280;27061;41.648;24.568;2023-05-20T09:23:22;86174.66;;;14.73;62.70
41312;BME280;27061;41.648;24.568;2023-05-20T09:25:51;86147.47;;;14.42;62.51
41312;BME280;27061;41.648;24.568;2023-05-20T09:28:21;86065.47;;;13.69;60.75
41312;BME280;27061;41.648;24.568;2023-05-20T09:30:56;86144.06;;;14.38;63.22
41312;BME280;27061;41.648;24.568;2023-05-20T09:33:27;86122.75;;;14.26;63.07
41312;BME280;27061;41.648;24.568;2023-05-20T09:36:03;86147.75;;;14.28;61.81
41312;BME280;27061;41.648;24.568;2023-05-20T09:38:33;86175.19;;;14.50;62.97
41312;BME280;27061;41.648;24.568;2023-05-20T09:41:10;86114.63;;;14.14;63.16
41312;BME280;27061;41.648;24.568;2023-05-20T09:43:40;86126.84;;;14.29;62.67
41312;BME280;27061;41.648;24.568;2023-05-20T09:46:08;86149.91;;;14.58;63.07
41312;BME280;27061;41.648;24.568;2023-05-20T09:48:37;86153.84;;;14.70;65.21
41312;BME280;27061;41.648;24.568;2023-05-20T09:51:05;86125.44;;;14.63;65.65
41312;BME280;27061;41.648;24.568;2023-05-20T09:53:36;86159.75;;;14.86;64.60
41312;BME280;27061;41.648;24.568;2023-05-20T09:56:04;86127.16;;;14.79;62.74
41312;BME280;27061;41.648;24.568;2023-05-20T09:58:32;86128.72;;;14.72;62.90
41312;BME280;27061;41.648;24.568;2023-05-20T10:01:01;86113.66;;;14.60;61.91
41312;BME280;27061;41.648;24.568;2023-05-20T10:03:29;86135.63;;;14.75;58.41
41312;BME280;27061;41.648;24.568;2023-05-20T10:11:39;86145.47;;;15.00;63.10
41312;BME280;27061;41.648;24.568;2023-05-20T10:14:27;86150.22;;;15.06;64.05
41312;BME280;27061;41.648;24.568;2023-05-20T10:17:16;86142.97;;;15.17;63.24
41312;BME280;27061;41.648;24.568;2023-05-20T10:19:46;86051.53;;;14.66;65.06
41312;BME280;27061;41.648;24.568;2023-05-20T10:22:25;86093.34;;;15.24;64.98
41312;BME280;27061;41.648;24.568;2023-05-20T10:24:58;86083.16;;;15.12;60.81
41312;BME280;27061;41.648;24.568;2023-05-20T10:27:26;86096.69;;;15.28;58.65
41312;BME280;27061;41.648;24.568;2023-05-20T10:29:56;86129.41;;;15.59;62.72
41312;BME280;27061;41.648;24.568;2023-05-20T10:32:27;86129.66;;;15.49;60.65
41312;BME280;27061;41.648;24.568;2023-05-20T10:35:00;86138.00;;;15.49;59.58
41312;BME280;27061;41.648;24.568;2023-05-20T10:37:48;86099.09;;;15.16;62.28
41312;BME280;27061;41.648;24.568;2023-05-20T10:40:19;86048.00;;;14.68;62.70
41312;BME280;27061;41.648;24.568;2023-05-20T10:42:47;86146.03;;;15.36;64.06
41312;BME280;27061;41.648;24.568;2023-05-20T10:45:25;86129.81;;;15.43;65.60
41312;BME280;27061;41.648;24.568;2023-05-20T10:47:54;86114.69;;;15.33;65.88
41312;BME280;27061;41.648;24.568;2023-05-20T10:50:36;86076.06;;;15.17;65.11
41312;BME280;27061;41.648;24.568;2023-05-20T10:53:05;86084.03;;;15.33;63.35
41312;BME280;27061;41.648;24.568;2023-05-20T10:55:39;86126.56;;;15.61;64.08
41312;BME280;27061;41.648;24.568;2023-05-20T10:58:09;86098.09;;;15.27;62.94
41312;BME280;27061;41.648;24.568;2023-05-20T11:00:37;86135.31;;;15.47;65.04
41312;BME280;27061;41.648;24.568;2023-05-20T11:03:05;86030.75;;;14.61;64.16
41312;BME280;27061;41.648;24.568;2023-05-20T11:05:33;86094.69;;;14.96;63.48
41312;BME280;27061;41.648;24.568;2023-05-20T11:08:06;86086.16;;;15.04;62.91
41312;BME280;27061;41.648;24.568;2023-05-20T11:10:50;86097.84;;;15.11;63.46
41312;BME280;27061;41.648;24.568;2023-05-20T11:13:17;86132.00;;;15.38;64.64
41312;BME280;27061;41.648;24.568;2023-05-20T11:15:44;86111.69;;;15.15;63.60
41312;BME280;27061;41.648;24.568;2023-05-20T11:18:11;86075.22;;;14.94;63.87
41312;BME280;27061;41.648;24.568;2023-05-20T11:20:46;86139.44;;;15.48;65.19
41312;BME280;27061;41.648;24.568;2023-05-20T11:23:14;86106.63;;;15.21;66.08
41312;BME280;27061;41.648;24.568;2023-05-20T11:25:41;86135.13;;;15.53;65.95
41312;BME280;27061;41.648;24.568;2023-05-20T11:28:12;86086.75;;;15.35;68.62
41312;BME280;27061;41.648;24.568;2023-05-20T11:30:41;86132.53;;;15.73;67.67
41312;BME280;27061;41.648;24.568;2023-05-20T11:33:13;86114.78;;;15.85;68.03
41312;BME280;27061;41.648;24.568;2023-05-20T11:35:51;86091.84;;;15.81;68.53
41312;BME280;27061;41.648;24.568;2023-05-20T11:38:19;86107.16;;;16.08;68.46
41312;BME280;27061;41.648;24.568;2023-05-20T11:40:52;86111.25;;;16.36;66.19
41312;BME280;27061;41.648;24.568;2023-05-20T11:43:21;86058.59;;;15.97;66.08
41312;BME280;27061;41.648;24.568;2023-05-20T11:45:54;86107.47;;;16.46;66.07
41312;BME280;27061;41.648;24.568;2023-05-20T11:48:22;86115.69;;;16.52;64.62
41312;BME280;27061;41.648;24.568;2023-05-20T11:50:52;86059.41;;;16.19;60.08
41312;BME280;27061;41.648;24.568;2023-05-20T11:53:21;86055.69;;;16.01;62.05
41312;BME280;27061;41.648;24.568;2023-05-20T11:55:50;86073.06;;;16.04;60.95
41312;BME280;27061;41.648;24.568;2023-05-20T11:58:20;86106.28;;;16.14;60.03
41312;BME280;27061;41.648;24.568;2023-05-20T12:00:48;86120.94;;;16.15;60.84
41312;BME280;27061;41.648;24.568;2023-05-20T12:03:24;86100.06;;;15.87;61.37
41312;BME280;27061;41.648;24.568;2023-05-20T12:05:52;86054.44;;;15.45;60.64
41312;BME280;27061;41.648;24.568;2023-05-20T12:08:19;86076.63;;;15.49;63.75
41312;BME280;27061;41.648;24.568;2023-05-20T12:10:46;86128.88;;;15.79;63.41
41312;BME280;27061;41.648;24.568;2023-05-20T12:13:13;86111.41;;;15.54;64.19
41312;BME280;27061;41.648;24.568;2023-05-20T12:15:40;86100.84;;;15.29;63.41
41312;BME280;27061;41.648;24.568;2023-05-20T12:18:08;86079.81;;;15.06;62.96
41312;BME280;27061;41.648;24.568;2023-05-20T12:20:36;86053.88;;;14.84;63.30
41312;BME280;27061;41.648;24.568;2023-05-20T12:23:03;86072.13;;;14.79;65.05
41312;BME280;27061;41.648;24.568;2023-05-20T12:25:30;86115.66;;;15.24;66.15
41312;BME280;27061;41.648;24.568;2023-05-20T12:27:58;86054.47;;;14.89;64.95
41312;BME280;27061;41.648;24.568;2023-05-20T12:30:25;86081.66;;;15.15;62.64
41312;BME280;27061;41.648;24.568;2023-05-20T12:32:52;86099.16;;;15.41;63.40
41312;BME280;27061;41.648;24.568;2023-05-20T12:35:36;86106.44;;;15.29;63.16
41312;BME280;27061;41.648;24.568;2023-05-20T12:38:04;86091.75;;;15.31;64.89
41312;BME280;27061;41.648;24.568;2023-05-20T12:40:32;86087.91;;;15.45;65.09
41312;BME280;27061;41.648;24.568;2023-05-20T12:43:00;86087.31;;;15.40;65.99
41312;BME280;27061;41.648;24.568;2023-05-20T12:45:28;86088.19;;;15.34;64.45
41312;BME280;27061;41.648;24.568;2023-05-20T12:47:56;86080.63;;;15.29;64.21
41312;BME280;27061;41.648;24.568;2023-05-20T12:50:23;86074.22;;;15.34;65.25
41312;BME280;27061;41.648;24.568;2023-05-20T12:52:51;86075.78;;;15.27;66.03
41312;BME280;27061;41.648;24.568;2023-05-20T12:55:18;86029.06;;;15.01;66.08
41312;BME280;27061;41.648;24.568;2023-05-20T12:57:46;86027.28;;;15.16;65.26
41312;BME280;27061;41.648;24.568;2023-05-20T13:00:13;86025.66;;;14.98;64.32
41312;BME280;27061;41.648;24.568;2023-05-20T13:02:41;86028.75;;;15.13;65.83
41312;BME280;27061;41.648;24.568;2023-05-20T13:05:09;86017.06;;;15.07;65.06
41312;BME280;27061;41.648;24.568;2023-05-20T13:07:37;86010.66;;;15.12;63.12